LiveATC.Net - Listen to live air traffic control over the Internet!


ICAO: RODN  IATA: DNA   Airport: Kadena Air Base
City: Okinawa
Country: Japan   Continent: Asia
RODN METAR Weather: RODN 171356Z AUTO 19005KT 10SM BKN015 BKN023 BKN035 OVC049 25/23 A2996 RMK AO2 DZB12E14RAB14E28DZB28E31 CIG 015V023 BKN015 V SCT CIG 014 RWY05 SLP151 P0002 T02460232 $
RODN Flight Activity (FlightAware)

RODN Gnd/Twr/App
Feed Status: UP   Listeners: 0
Listen in your browser - HTML5 player (in browser, HTML5)
Click here to listen with your own player (launches your MP3 player)
RODN Gnd/Twr/App Audio Archives

NOTICE

Unauthorized use prohibited. See LiveATC.net Terms of Service


Airport/ARTCC Code
Frequency Search
(e.g., 124.400, 128.75)
Site-wide search
 


Browse LiveATC Feeds
Top 50 LiveATC Feeds
LiveATC Feed Map
Bad Weather Areas

LiveATC FAQ
Offer LiveATC feed
Contact LiveATC.net
Press Inquiries

LiveATC on iPhone
LiveATC on Android

Windows Phone
Windows 8/10

LiveATC Mobile
(Mobile browser)

ATC Audio Archives
Interesting Recordings

LiveATC Forums


Home Page
About LiveATC.net
Make a Donation
Terms of Use
Privacy Policy

Canadian Air Freqs

AIRMETs/SIGMETs

FAA Airport Status
Nat'l Airspace Status
Arrival Demand Charts


Server Software By:
Icecast.org
Liquidsoap